Time;durP1;ratioP1;P1;durP2;ratioP2;P2;SDS_P1;SDS_P2;PMS_P1;PMS_P2;Temp;Humidity;BMP_temperature;BMP_pressure;BME280_temperature;BME280_humidity;BME280_pressure;Samples;Min_cycle;Max_cycle;Signal;HPM_P1;HPM_P2
2022/08/21 00:02:22;;;;;;;;;;;;;;;-142.75;100.00;76688.41;5032170;28;19920;-68
2022/08/21 00:04:48;;;;;;;;;;;;;;;-142.75;100.00;76680.53;5031901;28;19917;-68
2022/08/21 00:07:13;;;;;;;;;;;;;;;-142.75;100.00;76684.47;5033000;28;20292;-69
2022/08/21 00:09:39;;;;;;;;;;;;;;;-142.75;100.00;76684.47;5033271;28;19917;-67
2022/08/21 00:12:04;;;;;;;;;;;;;;;-142.75;100.00;76684.47;5033201;28;19913;-68
2022/08/21 00:14:30;;;;;;;;;;;;;;;-142.75;100.00;76688.41;5031783;28;19967;-68
2022/08/21 00:16:55;;;;;;;;;;;;;;;-142.75;100.00;76688.41;5031516;28;19913;-68
2022/08/21 00:19:24;;;;;;;;;;;;;;;-142.75;100.00;76690.38;5033130;28;19920;-67
2022/08/21 00:21:49;;;;;;;;;;;;;;;-142.75;100.00;76680.53;5031655;28;19924;-68
2022/08/21 00:24:14;;;;;;;;;;;;;;;-142.75;100.00;76684.47;5032920;28;19913;-68
2022/08/21 00:26:40;;;;;;;;;;;;;;;-142.75;100.00;76684.47;5032587;28;20348;-69
2022/08/21 00:29:05;;;;;;;;;;;;;;;-142.75;100.00;76686.44;5032862;28;19917;-67
2022/08/21 00:31:30;;;;;;;;;;;;;;;-142.75;100.00;76694.31;5032894;28;20449;-68
2022/08/21 00:33:55;;;;;;;;;;;;;;;-142.75;100.00;76686.44;5032482;28;19928;-68
2022/08/21 00:36:21;;;;;;;;;;;;;;;-142.75;100.00;76684.47;5032799;28;19952;-68
2022/08/21 00:38:46;;;;;;;;;;;;;;;-142.75;100.00;76676.59;5032434;28;19974;-68
2022/08/21 00:41:11;;;;;;;;;;;;;;;-142.75;100.00;76680.53;5032624;28;19957;-68
2022/08/21 00:43:37;;;;;;;;;;;;;;;-142.75;100.00;76680.53;5032541;28;20000;-68
2022/08/21 00:46:04;;;;;;;;;;;;;;;-142.75;100.00;76676.59;5031400;28;19909;-68
2022/08/21 00:48:29;;;;;;;;;;;;;;;-142.75;100.00;76682.50;5030994;28;19913;-67
2022/08/21 00:51:01;;;;;;;;;;;;;;;-142.75;100.00;76676.59;5032580;28;19991;-69
2022/08/21 00:53:27;;;;;;;;;;;;;;;-142.75;100.00;76688.41;5032445;28;20386;-67
2022/08/21 00:55:54;;;;;;;;;;;;;;;-142.75;100.00;76682.50;5032423;28;19913;-68
2022/08/21 00:58:19;;;;;;;;;;;;;;;-142.75;100.00;76690.38;5031727;28;19925;-69
2022/08/21 01:00:45;;;;;;;;;;;;;;;-142.75;100.00;76680.53;5032365;28;19917;-69
2022/08/21 01:03:12;;;;;;;;;;;;;;;-142.75;100.00;76692.34;5032254;28;20066;-67
2022/08/21 01:05:38;;;;;;;;;;;;;;;-142.75;100.00;76696.28;5032396;28;19917;-68
2022/08/21 01:08:04;;;;;;;;;;;;;;;-142.75;100.00;76686.44;5032004;28;19966;-68
2022/08/21 01:10:29;;;;;;;;;;;;;;;-142.75;100.00;76682.50;5032062;28;19967;-68
2022/08/21 01:12:55;;;;;;;;;;;;;;;-142.75;100.00;76676.59;5032210;28;19917;-68
2022/08/21 01:15:22;;;;;;;;;;;;;;;-142.75;100.00;76670.69;5032235;28;19917;-67
2022/08/21 01:17:48;;;;;;;;;;;;;;;-142.75;100.00;76672.66;5031916;28;20008;-69
2022/08/21 01:20:14;;;;;;;;;;;;;;;-142.75;100.00;76672.66;5032109;28;19971;-68
2022/08/21 01:22:39;;;;;;;;;;;;;;;-142.75;100.00;76680.53;5032124;28;19932;-68
2022/08/21 01:25:05;;;;;;;;;;;;;;;-142.75;100.00;76684.47;5032034;28;19913;-68
2022/08/21 01:27:31;;;;;;;;;;;;;;;-142.75;100.00;76692.34;5031654;28;19913;-68
2022/08/21 01:30:03;;;;;;;;;;;;;;;-142.75;100.00;76692.34;5030799;28;19920;-68
2022/08/21 01:32:29;;;;;;;;;;;;;;;-142.75;100.00;76688.41;5032111;28;19913;-68
2022/08/21 01:34:54;;;;;;;;;;;;;;;-142.75;100.00;76694.31;5032005;28;20360;-68
2022/08/21 01:37:20;;;;;;;;;;;;;;;-142.75;100.00;76696.28;5031754;28;20036;-68
2022/08/21 01:39:46;;;;;;;;;;;;;;;-142.75;100.00;76700.22;5031828;28;19913;-68
2022/08/21 01:42:11;;;;;;;;;;;;;;;-142.75;100.00;76696.28;5032003;28;20294;-68
2022/08/21 01:44:36;;;;;;;;;;;;;;;-142.75;100.00;76702.19;5030613;28;19913;-68
2022/08/21 01:47:04;;;;;;;;;;;;;;;-142.75;100.00;76696.28;5030353;28;19966;-67
2022/08/21 01:49:30;;;;;;;;;;;;;;;-142.75;100.00;76704.16;5031942;28;19940;-68
2022/08/21 01:51:55;;;;;;;;;;;;;;;-142.75;100.00;76700.22;5031912;28;19917;-68
2022/08/21 01:54:20;;;;;;;;;;;;;;;-142.75;100.00;76696.28;5031694;28;19999;-69
2022/08/21 01:56:48;;;;;;;;;;;;;;;-142.75;100.00;76702.19;5031565;28;20398;-68
2022/08/21 01:59:13;;;;;;;;;;;;;;;-142.75;100.00;76700.22;5031735;28;20264;-68
2022/08/21 02:01:39;;;;;;;;;;;;;;;-142.75;100.00;76712.03;5031741;28;19971;-68
2022/08/21 02:04:05;;;;;;;;;;;;;;;-142.75;100.00;76704.16;5031767;28;19920;-67
2022/08/21 02:06:30;;;;;;;;;;;;;;;-142.75;100.00;76700.22;5030377;28;19913;-67
2022/08/21 02:08:55;;;;;;;;;;;;;;;-142.75;100.00;76698.25;5031821;28;19913;-69
2022/08/21 02:11:20;;;;;;;;;;;;;;;-142.75;100.00;76706.13;5035524;28;20007;-68
2022/08/21 02:13:45;;;;;;;;;;;;;;;-142.75;100.00;76708.09;5035421;28;19917;-68
2022/08/21 02:16:11;;;;;;;;;;;;;;;-142.75;100.00;76704.16;5035376;28;19913;-68
2022/08/21 02:18:37;;;;;;;;;;;;;;;-142.75;100.00;76700.22;5033832;28;20341;-69
2022/08/21 02:21:03;;;;;;;;;;;;;;;-142.75;100.00;76704.16;5035303;28;19917;-68
2022/08/21 02:23:28;;;;;;;;;;;;;;;-142.75;100.00;76710.06;5035087;28;20303;-70
2022/08/21 02:25:54;;;;;;;;;;;;;;;-142.75;100.00;76725.81;5035267;28;19913;-68
2022/08/21 02:28:19;;;;;;;;;;;;;;;-142.75;100.00;76755.34;5033574;28;19917;-67
2022/08/21 02:30:47;;;;;;;;;;;;;;;-142.75;100.00;76761.25;5033896;28;19920;-69
2022/08/21 02:33:13;;;;;;;;;;;;;;;-142.75;100.00;76761.25;5034918;28;20018;-67
2022/08/21 02:35:39;;;;;;;;;;;;;;;-142.75;100.00;76761.25;5035139;28;19920;-68
2022/08/21 02:38:06;;;;;;;;;;;;;;;-142.75;100.00;76769.13;5034600;28;19919;-68
2022/08/21 02:40:33;;;;;;;;;;;;;;;-142.75;100.00;76777.00;5034992;28;20010;-67
2022/08/21 02:42:59;;;;;;;;;;;;;;;-142.75;100.00;76773.06;5034861;28;19913;-69
2022/08/21 02:45:25;;;;;;;;;;;;;;;-142.75;100.00;76765.19;5033631;28;20008;-66
2022/08/21 02:47:54;;;;;;;;;;;;;;;-142.75;100.00;76771.09;5034561;28;19919;-70
2022/08/21 02:50:21;;;;;;;;;;;;;;;-142.75;100.00;76767.16;5034644;28;19966;-68
2022/08/21 02:52:47;;;;;;;;;;;;;;;-142.75;100.00;76780.94;5034547;28;19967;-69
2022/08/21 02:55:12;;;;;;;;;;;;;;;-142.75;100.00;76780.94;5033445;28;19917;-69
2022/08/21 02:57:37;;;;;;;;;;;;;;;-142.75;100.00;76784.88;5034368;28;20000;-68
2022/08/21 03:00:04;;;;;;;;;;;;;;;-142.75;100.00;76786.84;5034172;28;19917;-69
2022/08/21 03:02:29;;;;;;;;;;;;;;;-142.75;100.00;76786.84;5034612;28;19928;-68
2022/08/21 03:04:54;;;;;;;;;;;;;;;-142.75;100.00;76802.56;5033275;28;19913;-67
2022/08/21 03:07:19;;;;;;;;;;;;;;;-142.75;100.00;76808.50;5034076;28;19913;-68
2022/08/21 03:09:45;;;;;;;;;;;;;;;-142.75;100.00;76806.50;5034434;28;19953;-68
2022/08/21 03:12:10;;;;;;;;;;;;;;;-142.75;100.00;76804.53;5034446;28;19913;-69
2022/08/21 03:14:35;;;;;;;;;;;;;;;-142.75;100.00;76804.53;5034315;28;19913;-68
2022/08/21 03:17:00;;;;;;;;;;;;;;;-142.75;100.00;76798.66;5034020;28;19921;-69
2022/08/21 03:19:25;;;;;;;;;;;;;;;-142.75;100.00;76798.66;5034265;28;19963;-68
2022/08/21 03:21:51;;;;;;;;;;;;;;;-142.75;100.00;76798.66;5033715;28;19917;-68
2022/08/21 03:24:16;;;;;;;;;;;;;;;-142.75;100.00;76808.50;5034089;28;19913;-69
2022/08/21 03:26:41;;;;;;;;;;;;;;;-142.75;100.00;76798.66;5033836;28;19913;-68
2022/08/21 03:29:07;;;;;;;;;;;;;;;-142.75;100.00;76802.56;5034121;28;19921;-68
2022/08/21 03:31:32;;;;;;;;;;;;;;;-142.75;100.00;76814.38;5034048;28;19913;-67
2022/08/21 03:33:57;;;;;;;;;;;;;;;-142.75;100.00;76824.22;5032576;28;19975;-69
2022/08/21 03:36:23;;;;;;;;;;;;;;;-142.75;100.00;76820.28;5033787;28;19913;-69
2022/08/21 03:38:48;;;;;;;;;;;;;;;-142.75;100.00;76832.09;5033745;28;20378;-68
2022/08/21 03:41:13;;;;;;;;;;;;;;;-142.75;100.00;76814.38;5033779;28;20367;-67
2022/08/21 03:43:38;;;;;;;;;;;;;;;-142.75;100.00;76812.41;5033784;28;20016;-68
2022/08/21 03:46:04;;;;;;;;;;;;;;;-142.75;100.00;76824.22;5033730;28;19956;-68
2022/08/21 03:48:30;;;;;;;;;;;;;;;-142.75;100.00;76828.16;5032152;28;19998;-68
2022/08/21 03:50:56;;;;;;;;;;;;;;;-142.75;100.00;76838.00;5033488;28;19936;-68
2022/08/21 03:53:21;;;;;;;;;;;;;;;-142.75;100.00;76826.19;5032346;28;20002;-68
2022/08/21 03:55:48;;;;;;;;;;;;;;;-142.75;100.00;76845.88;5033563;28;19921;-68
2022/08/21 03:58:17;;;;;;;;;;;;;;;-142.75;100.00;76830.13;5033235;28;19971;-68
2022/08/21 04:00:48;;;;;;;;;;;;;;;-142.75;100.00;76826.19;5033363;28;19917;-67
2022/08/21 04:03:13;;;;;;;;;;;;;;;-142.75;100.00;76832.09;5033365;28;20016;-68
2022/08/21 04:05:38;;;;;;;;;;;;;;;-142.75;100.00;76824.22;5033240;28;19957;-67
2022/08/21 04:08:05;;;;;;;;;;;;;;;-142.75;100.00;76824.22;5033071;28;19936;-68
2022/08/21 04:10:32;;;;;;;;;;;;;;;-142.75;100.00;76834.06;5033313;28;20401;-67
2022/08/21 04:12:57;;;;;;;;;;;;;;;-142.75;100.00;76830.13;5033128;28;19913;-67
2022/08/21 04:15:23;;;;;;;;;;;;;;;-142.75;100.00;76834.06;5033201;28;19913;-67
2022/08/21 04:17:49;;;;;;;;;;;;;;;-142.75;100.00;76839.97;5032848;28;19913;-68
2022/08/21 04:20:14;;;;;;;;;;;;;;;-142.75;100.00;76826.19;5032914;28;19917;-67
2022/08/21 04:22:40;;;;;;;;;;;;;;;-142.75;100.00;76839.97;5032951;28;20011;-67
2022/08/21 04:25:05;;;;;;;;;;;;;;;-142.75;100.00;76859.66;5032994;28;19917;-68
2022/08/21 04:27:30;;;;;;;;;;;;;;;-142.75;100.00;76857.69;5032669;28;20383;-68
2022/08/21 04:29:56;;;;;;;;;;;;;;;-142.75;100.00;76849.81;5032957;28;19913;-67
2022/08/21 04:32:22;;;;;;;;;;;;;;;-142.75;100.00;76853.75;5032260;28;19920;-67
2022/08/21 04:34:47;;;;;;;;;;;;;;;-142.75;100.00;76861.63;5032587;28;19928;-67
2022/08/21 04:37:15;;;;;;;;;;;;;;;-142.75;100.00;76855.72;5032478;28;19917;-67
2022/08/21 04:39:40;;;;;;;;;;;;;;;-142.75;100.00;76859.66;5032771;28;19913;-67
2022/08/21 04:42:06;;;;;;;;;;;;;;;-142.75;100.00;76867.53;5031304;28;20294;-67
2022/08/21 04:44:31;;;;;;;;;;;;;;;-142.75;100.00;76873.44;5032679;28;20402;-68
2022/08/21 04:46:57;;;;;;;;;;;;;;;-142.75;100.00;76873.44;5032370;28;19917;-69
2022/08/21 04:49:22;;;;;;;;;;;;;;;-142.75;100.00;76879.34;5032446;28;19912;-67
2022/08/21 04:51:47;;;;;;;;;;;;;;;-142.75;100.00;76879.34;5032603;28;19923;-67
2022/08/21 04:54:16;;;;;;;;;;;;;;;-142.75;100.00;76883.28;5032422;28;19913;-69
2022/08/21 04:56:45;;;;;;;;;;;;;;;-142.75;100.00;76877.38;5032231;28;19974;-68
2022/08/21 04:59:13;;;;;;;;;;;;;;;-142.75;100.00;76891.16;5031158;28;20004;-68
2022/08/21 05:01:39;;;;;;;;;;;;;;;-142.75;100.00;76893.13;5032335;28;19917;-68
2022/08/21 05:04:05;;;;;;;;;;;;;;;-142.75;100.00;76891.16;5032283;28;19917;-67
2022/08/21 05:06:33;;;;;;;;;;;;;;;-142.75;100.00;76885.25;5032314;28;19913;-68
2022/08/21 05:09:00;;;;;;;;;;;;;;;-142.75;100.00;76885.25;5032230;28;19952;-68
2022/08/21 05:11:25;;;;;;;;;;;;;;;-142.75;100.00;76875.41;5032302;28;19917;-68
2022/08/21 05:13:50;;;;;;;;;;;;;;;-142.75;100.00;76869.50;5032146;28;19920;-67
2022/08/21 05:16:16;;;;;;;;;;;;;;;-142.75;100.00;76861.63;5032222;28;19913;-68
2022/08/21 05:18:41;;;;;;;;;;;;;;;-142.75;100.00;76845.88;5031866;28;19980;-68
2022/08/21 05:21:06;;;;;;;;;;;;;;;-142.75;100.00;76822.25;5032131;28;19921;-68
2022/08/21 05:23:32;;;;;;;;;;;;;;;-142.75;100.00;76812.41;5032156;28;20379;-67
2022/08/21 05:25:58;;;;;;;;;;;;;;;-142.75;100.00;76800.63;5030877;28;19921;-67
2022/08/21 05:28:23;;;;;;;;;;;;;;;-142.75;100.00;76782.91;5031903;28;20398;-68
2022/08/21 05:30:48;;;;;;;;;;;;;;;-142.75;100.00;76771.09;5032103;28;20402;-67
2022/08/21 05:33:14;;;;;;;;;;;;;;;-142.75;100.00;76757.31;5031833;28;20288;-68
2022/08/21 05:35:39;;;;;;;;;;;;;;;-142.75;100.00;76729.75;5032062;28;20337;-68
2022/08/21 05:38:05;;;;;;;;;;;;;;;-142.75;100.00;76719.91;5031750;28;19919;-68
2022/08/21 05:40:31;;;;;;;;;;;;;;;-142.75;100.00;76706.13;5031926;28;19924;-68
2022/08/21 05:42:56;;;;;;;;;;;;;;;-142.75;100.00;76690.38;5031115;28;19913;-68
2022/08/21 05:45:26;;;;;;;;;;;;;;;-142.75;100.00;76680.53;5035941;28;19943;-68
2022/08/21 05:47:51;;;;;;;;;;;;;;;-142.75;100.00;76654.94;5035582;28;19962;-67
2022/08/21 05:50:17;;;;;;;;;;;;;;;-142.75;100.00;76643.13;5035897;28;19917;-67
2022/08/21 05:52:42;;;;;;;;;;;;;;;-142.75;100.00;76621.47;5035830;28;19979;-68
2022/08/21 05:55:07;;;;;;;;;;;;;;;-142.75;100.00;76621.47;5035810;28;19917;-68
2022/08/21 05:57:32;;;;;;;;;;;;;;;-142.75;100.00;76595.88;5035515;28;19913;-66
2022/08/21 05:59:58;;;;;;;;;;;;;;;-142.75;100.00;76574.22;5035714;28;19920;-69
2022/08/21 06:02:23;;;;;;;;;;;;;;;-142.75;100.00;76554.53;5034293;28;19917;-67
2022/08/21 06:04:48;;;;;;;;;;;;;;;-142.75;100.00;76542.72;5034316;28;19913;-68
2022/08/21 06:07:14;;;;;;;;;;;;;;;-142.75;100.00;76523.06;5035304;28;20389;-68
2022/08/21 06:09:40;;;;;;;;;;;;;;;-142.75;100.00;76515.19;5034306;28;20004;-67
2022/08/21 06:12:06;;;;;;;;;;;;;;;-142.75;100.00;76489.59;5035503;28;19921;-68
2022/08/21 06:14:31;;;;;;;;;;;;;;;-142.75;100.00;76483.69;5035269;28;19920;-68
2022/08/21 06:17:07;;;;;;;;;;;;;;;-142.75;100.00;76475.81;5034999;28;19917;-68
2022/08/21 06:19:32;;;;;;;;;;;;;;;-142.75;100.00;76471.88;5035434;28;19909;-68
2022/08/21 06:21:58;;;;;;;;;;;;;;;-142.75;100.00;76458.09;5034010;28;19924;-67
2022/08/21 06:24:23;;;;;;;;;;;;;;;-142.75;100.00;76448.25;5035205;28;19966;-68
2022/08/21 06:26:48;;;;;;;;;;;;;;;-142.75;100.00;76410.84;5034949;28;19967;-68
2022/08/21 06:29:16;;;;;;;;;;;;;;;-142.75;100.00;76420.69;5035159;28;20039;-68
2022/08/21 06:31:41;;;;;;;;;;;;;;;-142.75;100.00;76402.97;5033767;28;19913;-68
2022/08/21 06:34:07;;;;;;;;;;;;;;;-142.75;100.00;76402.97;5056882;22;20310;-67
2022/08/21 06:36:32;;;;;;;;;;;;;;;-142.75;100.00;76353.78;5054208;28;19928;-67
2022/08/21 06:38:57;;;;;;;;;;;;;;;-142.75;100.00;76340.00;5054947;28;19917;-67
2022/08/21 06:41:22;;;;;;;;;;;;;;;-142.75;100.00;76328.19;5055409;28;19932;-67
2022/08/21 06:43:47;;;;;;;;;;;;;;;-142.75;100.00;76288.81;5052223;28;19928;-67
2022/08/21 06:46:12;;;;;;;;;;;;;;;-142.75;100.00;76267.16;5044674;28;19917;-67
2022/08/21 06:48:38;;;;;;;;;;;;;;;-142.75;100.00;76251.41;5032739;28;19940;-67
2022/08/21 06:51:03;;;;;;;;;;;;;;;-142.75;100.00;76255.34;5057877;28;19919;-67
2022/08/21 06:53:28;;;;;;;;;;;;;;;-142.75;100.00;76237.63;5055870;28;19935;-67
2022/08/21 06:55:53;;;;;;;;;;;;;;;-142.75;100.00;76229.75;5054718;28;20345;-67
2022/08/21 06:58:19;;;;;;;;;;;;;;;-142.75;100.00;76208.09;5055181;28;19913;-67
2022/08/21 07:00:46;;;;;;;;;;;;;;;-142.75;100.00;76184.50;5055378;28;20387;-67
2022/08/21 07:03:23;;;;;;;;;;;;;;;-142.75;100.00;76196.31;5055560;28;19974;-67
2022/08/21 07:05:48;;;;;;;;;;;;;;;-142.75;100.00;76164.81;5055647;28;19913;-67
2022/08/21 07:08:13;;;;;;;;;;;;;;;-142.75;100.00;76143.16;5054993;28;19913;-67
2022/08/21 07:10:38;;;;;;;;;;;;;;;-142.75;100.00;76141.19;5055372;28;20281;-67
2022/08/21 07:13:03;;;;;;;;;;;;;;;-142.75;100.00;76137.25;5055093;28;20024;-67
2022/08/21 07:15:29;;;;;;;;;;;;;;;-142.75;100.00;76093.94;5055326;28;19948;-67
2022/08/21 07:17:54;;;;;;;;;;;;;;;-142.75;100.00;76072.31;5055049;28;19913;-67
2022/08/21 07:20:19;;;;;;;;;;;;;;;-142.75;100.00;76066.41;5048240;28;19932;-67
2022/08/21 07:22:45;;;;;;;;;;;;;;;-142.75;100.00;76056.56;5044645;28;19913;-67
2022/08/21 07:25:10;;;;;;;;;;;;;;;-142.75;100.00;76042.78;5044143;28;19912;-67
2022/08/21 07:27:35;;;;;;;;;;;;;;;-142.75;100.00;76038.84;5045675;28;19920;-66
2022/08/21 07:30:00;;;;;;;;;;;;;;;-142.75;100.00;76007.34;5044250;28;19917;-67
2022/08/21 07:32:26;;;;;;;;;;;;;;;-142.75;100.00;75977.81;5044816;28;19912;-68
2022/08/21 07:34:51;;;;;;;;;;;;;;;-142.75;100.00;75987.66;5046432;28;19970;-67
2022/08/21 07:37:16;;;;;;;;;;;;;;;-142.75;100.00;75958.16;5052739;28;19913;-67
2022/08/21 07:39:41;;;;;;;;;;;;;;;-142.75;100.00;75989.63;5053054;28;19917;-67
2022/08/21 07:42:07;;;;;;;;;;;;;;;-142.75;100.00;75962.09;5047774;28;19921;-67
2022/08/21 07:44:34;;;;;;;;;;;;;;;-142.75;100.00;75975.84;5049220;28;19916;-66
2022/08/21 07:46:59;;;;;;;;;;;;;;;-142.75;100.00;75926.66;5045469;28;19912;-67
2022/08/21 07:49:24;;;;;;;;;;;;;;;-142.75;100.00;75916.81;5030259;28;19920;-66
2022/08/21 07:51:50;;;;;;;;;;;;;;;-142.75;100.00;75940.44;5047598;28;19916;-66
2022/08/21 07:54:15;;;;;;;;;;;;;;;-142.75;100.00;75897.13;5026941;28;20003;-67
2022/08/21 07:56:40;;;;;;;;;;;;;;;-142.75;100.00;75905.00;5048757;28;19920;-66
2022/08/21 07:59:05;;;;;;;;;;;;;;;-142.75;100.00;75885.31;5045036;28;19967;-66
2022/08/21 08:01:30;;;;;;;;;;;;;;;-142.75;100.00;75867.59;5044270;28;20098;-64
2022/08/21 08:03:56;;;;;;;;;;;;;;;-142.75;100.00;75818.41;5043821;28;19913;-64
2022/08/21 08:06:21;;;;;;;;;;;;;;;-142.75;100.00;75808.56;5038169;28;19913;-65
2022/08/21 08:08:46;;;;;;;;;;;;;;;-142.75;100.00;75790.84;5048743;28;19967;-65
2022/08/21 08:11:15;;;;;;;;;;;;;;;-142.75;100.00;75769.19;5048784;28;19913;-65
2022/08/21 08:13:41;;;;;;;;;;;;;;;-142.75;100.00;75775.09;5045271;28;19960;-64
2022/08/21 08:16:07;;;;;;;;;;;;;;;-142.75;100.00;75765.25;5040933;28;19916;-65
2022/08/21 08:18:32;;;;;;;;;;;;;;;-142.75;100.00;75751.50;5040323;28;20394;-66
2022/08/21 08:20:57;;;;;;;;;;;;;;;-142.75;100.00;75700.31;5049482;28;19917;-64
2022/08/21 08:23:22;;;;;;;;;;;;;;;-142.75;100.00;75684.56;5051305;28;20003;-65
2022/08/21 08:25:48;;;;;;;;;;;;;;;-142.75;100.00;75694.41;5048162;28;19917;-65
2022/08/21 08:28:13;;;;;;;;;;;;;;;-142.75;100.00;75655.06;5048452;28;19916;-65
2022/08/21 08:30:38;;;;;;;;;;;;;;;-142.75;100.00;75670.81;5033304;28;19923;-65
2022/08/21 08:33:03;;;;;;;;;;;;;;;-142.75;100.00;75629.47;5043958;28;19913;-65
2022/08/21 08:35:29;;;;;;;;;;;;;;;-142.75;100.00;75607.81;5041855;28;20091;-64
2022/08/21 08:37:54;;;;;;;;;;;;;;;-142.75;100.00;75586.19;5026386;28;19966;-65
2022/08/21 08:40:30;;;;;;;;;;;;;;;-142.75;100.00;75574.38;5021583;28;19932;-65
2022/08/21 08:42:55;;;;;;;;;;;;;;;-142.75;100.00;75554.69;5035580;28;20007;-66
2022/08/21 08:45:23;;;;;;;;;;;;;;;-142.75;100.00;75493.69;5044179;28;19987;-65
2022/08/21 08:47:57;;;;;;;;;;;;;;;-142.75;100.00;75578.31;5051026;28;20247;-65
2022/08/21 08:50:25;;;;;;;;;;;;;;;-142.75;100.00;75550.75;5053501;28;19917;-65
2022/08/21 08:52:59;;;;;;;;;;;;;;;-142.75;100.00;75533.03;5027951;28;19913;-65
2022/08/21 08:55:27;;;;;;;;;;;;;;;-142.75;100.00;75556.66;5047667;28;20298;-65
2022/08/21 08:57:54;;;;;;;;;;;;;;;-142.75;100.00;75554.69;5044466;28;19916;-65
2022/08/21 09:00:20;;;;;;;;;;;;;;;-142.75;100.00;75501.56;5047741;28;19924;-65
2022/08/21 09:02:46;;;;;;;;;;;;;;;-142.75;100.00;75511.41;5054302;28;20011;-65
2022/08/21 09:05:37;;;;;;;;;;;;;;;-142.75;100.00;75535.00;5054207;28;19951;-65
2022/08/21 09:08:13;;;;;;;;;;;;;;;-142.75;100.00;75566.50;5049812;28;19920;-64
2022/08/21 09:11:01;;;;;;;;;;;;;;;-142.75;100.00;75576.34;5053813;28;19995;-65
2022/08/21 09:13:32;;;;;;;;;;;;;;;-142.75;100.00;75548.78;5053556;28;19920;-65
2022/08/21 09:16:21;;;;;;;;;;;;;;;-142.75;100.00;75601.91;5053786;28;20362;-65
2022/08/21 09:19:05;;;;;;;;;;;;;;;-142.75;100.00;75550.75;5052960;28;19966;-65
2022/08/21 09:21:36;;;;;;;;;;;;;;;-142.75;100.00;75536.97;5053447;28;20027;-64
2022/08/21 09:24:24;;;;;;;;;;;;;;;-142.75;100.00;75515.31;5052923;28;20309;-65
2022/08/21 09:27:05;;;;;;;;;;;;;;;-142.75;100.00;75507.47;5034791;28;19940;-65
2022/08/21 09:29:32;;;;;;;;;;;;;;;-142.75;100.00;75499.59;5044170;28;19966;-64
2022/08/21 09:31:58;;;;;;;;;;;;;;;-142.75;100.00;75513.38;5024950;28;19921;-65
2022/08/21 09:34:24;;;;;;;;;;;;;;;-142.75;100.00;75560.59;5042303;28;20432;-63
2022/08/21 09:36:50;;;;;;;;;;;;;;;-142.75;100.00;75613.72;5038727;28;19974;-64
2022/08/21 09:39:23;;;;;;;;;;;;;;;-142.75;100.00;75578.31;5033457;28;20003;-65
2022/08/21 09:41:55;;;;;;;;;;;;;;;-142.75;100.00;75535.00;5040885;28;19928;-65
2022/08/21 09:44:24;;;;;;;;;;;;;;;-142.75;100.00;75470.06;5044078;28;20020;-66
2022/08/21 09:46:52;;;;;;;;;;;;;;;-142.75;100.00;75475.97;5045312;28;20027;-64
2022/08/21 09:49:26;;;;;;;;;;;;;;;-142.75;100.00;75515.31;5048399;28;19913;-65
2022/08/21 09:51:52;;;;;;;;;;;;;;;-142.75;100.00;75542.88;5045210;28;19917;-65
2022/08/21 09:54:18;;;;;;;;;;;;;;;-142.75;100.00;75495.66;5027376;28;19913;-65
2022/08/21 09:59:45;;;;;;;;;;;;;;;-142.75;100.00;75432.69;5046359;28;19958;-64
2022/08/21 10:02:25;;;;;;;;;;;;;;;-142.75;100.00;75414.97;5043139;28;19917;-65
2022/08/21 10:04:52;;;;;;;;;;;;;;;-142.75;99.03;75446.44;5043456;28;19967;-65
2022/08/21 10:07:20;;;;;;;;;;;;;;;-142.75;100.00;75416.94;5036282;28;19920;-65
2022/08/21 10:09:45;;;;;;;;;;;;;;;-142.75;99.80;75403.16;5035787;28;19917;-65
2022/08/21 10:12:10;;;;;;;;;;;;;;;-142.75;98.15;75346.09;5025380;28;19924;-66
2022/08/21 10:14:44;;;;;;;;;;;;;;;-142.75;89.89;75308.69;5047742;28;19913;-66
2022/08/21 10:17:12;;;;;;;;;;;;;;;-142.75;91.53;75287.06;5046749;28;20007;-65
2022/08/21 10:19:37;;;;;;;;;;;;;;;-142.75;91.64;75287.06;5046413;28;19916;-66
2022/08/21 10:22:16;;;;;;;;;;;;;;;-142.75;84.99;75257.53;5044674;28;20301;-65
2022/08/21 10:24:57;;;;;;;;;;;;;;;-142.75;79.39;75257.53;5043350;28;19992;-66
2022/08/21 10:27:29;;;;;;;;;;;;;;;-142.75;78.41;75334.28;5035952;28;19916;-66
2022/08/21 10:30:01;;;;;;;;;;;;;;;-142.75;75.73;75320.50;5052851;28;19995;-66
2022/08/21 10:32:26;;;;;;;;;;;;;;;-142.75;76.86;75291.00;5051978;28;19929;-65
2022/08/21 10:35:14;;;;;;;;;;;;;;;-142.75;76.33;75344.13;5047580;28;20448;-65
2022/08/21 10:37:59;;;;;;;;;;;;;;;-142.75;73.65;75292.97;4992947;28;19952;-66
2022/08/21 10:40:27;;;;;;;;;;;;;;;-142.75;76.39;75231.94;5055704;28;19917;-65
2022/08/21 10:43:01;;;;;;;;;;;;;;;-142.75;74.69;75249.66;5058332;28;19936;-65
2022/08/21 10:45:48;;;;;;;;;;;;;;;-142.75;74.90;75306.72;5058824;28;19912;-65
2022/08/21 10:48:36;;;;;;;;;;;;;;;-142.75;73.65;75235.88;5057383;28;19943;-65
2022/08/21 10:51:01;;;;;;;;;;;;;;;-142.75;70.72;75204.41;5048581;28;19912;-65
2022/08/21 10:53:39;;;;;;;;;;;;;;;-142.75;69.87;75186.69;5043967;28;20405;-65
2022/08/21 10:56:10;;;;;;;;;;;;;;;-142.75;70.61;75178.81;5054836;28;19912;-65
2022/08/21 10:58:44;;;;;;;;;;;;;;;-142.75;68.78;75208.34;5036400;28;19919;-65
2022/08/21 11:01:12;;;;;;;;;;;;;;;-142.75;67.81;75202.44;5052141;28;19924;-65
2022/08/21 11:03:43;;;;;;;;;;;;;;;-142.75;67.42;75184.72;5049424;28;19921;-65
2022/08/21 11:06:11;;;;;;;;;;;;;;;-142.75;68.04;75161.13;5053359;28;19935;-65
2022/08/21 11:08:42;;;;;;;;;;;;;;;-142.75;66.02;75119.78;5036998;28;19927;-66
2022/08/21 11:11:18;;;;;;;;;;;;;;;-142.75;66.25;75084.38;5056181;28;20297;-66
2022/08/21 11:13:53;;;;;;;;;;;;;;;-142.75;67.48;75048.94;5056104;28;20015;-65
2022/08/21 11:16:25;;;;;;;;;;;;;;;-142.75;66.28;75066.66;5056452;28;19964;-66
2022/08/21 11:18:57;;;;;;;;;;;;;;;-142.75;69.54;75233.91;5038435;28;19913;-65
2022/08/21 11:21:37;;;;;;;;;;;;;;;-142.75;70.99;75123.72;5056833;28;20304;-66
2022/08/21 11:24:12;;;;;;;;;;;;;;;-142.75;69.95;75050.91;5056806;28;19920;-66
2022/08/21 11:26:58;;;;;;;;;;;;;;;-142.75;66.11;75041.09;5056573;28;19920;-66
2022/08/21 11:29:24;;;;;;;;;;;;;;;-142.75;64.77;75048.94;5037855;28;19920;-66
2022/08/21 11:31:55;;;;;;;;;;;;;;;-142.75;65.12;75121.75;5056431;28;20008;-66
2022/08/21 11:34:35;;;;;;;;;;;;;;;-142.75;67.75;75056.81;5056414;28;20390;-66
2022/08/21 11:37:18;;;;;;;;;;;;;;;-142.75;63.08;74997.78;5056213;28;20382;-66
2022/08/21 11:39:55;;;;;;;;;;;;;;;-142.75;62.59;74993.84;5055322;28;19963;-66
2022/08/21 11:42:26;;;;;;;;;;;;;;;-142.75;61.63;75174.88;5056175;28;20008;-66
2022/08/21 11:45:15;;;;;;;;;;;;;;;-142.75;62.52;75224.09;5055652;28;19912;-66
2022/08/21 11:47:59;;;;;;;;;;;;;;;-142.75;63.80;75066.66;5044570;28;19919;-66
2022/08/21 11:50:31;;;;;;;;;;;;;;;-142.75;62.49;75007.63;5055882;28;19912;-65
2022/08/21 11:53:01;;;;;;;;;;;;;;;-142.75;59.79;74995.81;5055662;28;20005;-66
2022/08/21 11:55:35;;;;;;;;;;;;;;;-142.75;60.31;75019.44;5055122;28;19943;-66
2022/08/21 11:58:05;;;;;;;;;;;;;;;-142.75;60.82;75086.34;5055031;28;19917;-65
2022/08/21 12:00:30;;;;;;;;;;;;;;;-142.75;59.68;75066.66;5054744;28;19924;-65
2022/08/21 12:02:58;;;;;;;;;;;;;;;-142.75;59.91;75098.16;5054822;28;20394;-65
2022/08/21 12:05:29;;;;;;;;;;;;;;;-142.75;60.17;75054.84;5054682;28;20039;-65
2022/08/21 12:08:06;;;;;;;;;;;;;;;-142.75;58.55;74995.81;5054247;28;19917;-66
2022/08/21 12:10:33;;;;;;;;;;;;;;;-142.75;58.79;75125.69;5054666;28;19955;-65
2022/08/21 12:13:08;;;;;;;;;;;;;;;-142.75;60.08;75115.84;5054351;28;19920;-66
2022/08/21 12:15:34;;;;;;;;;;;;;;;-142.75;61.15;75092.25;5054566;28;19916;-65
2022/08/21 12:18:01;;;;;;;;;;;;;;;-142.75;61.41;75113.88;5054542;28;19912;-67
2022/08/21 12:20:29;;;;;;;;;;;;;;;-142.75;60.77;75106.00;5055119;28;19956;-66
2022/08/21 12:23:23;;;;;;;;;;;;;;;-142.75;60.96;75098.16;5055315;28;19913;-66
2022/08/21 12:26:09;;;;;;;;;;;;;;;-142.75;59.54;75045.00;5038013;28;19913;-66